createdAt,value
2018-04-17T00:02:17.701Z,23.43
2018-04-17T00:04:46.765Z,23.40
2018-04-17T00:07:14.345Z,23.57
2018-04-17T00:09:41.899Z,22.50
2018-04-17T00:12:09.468Z,21.47
2018-04-17T00:14:37.027Z,21.37
2018-04-17T00:17:06.111Z,22.53
2018-04-17T00:19:33.680Z,22.30
2018-04-17T00:22:01.336Z,22.50
2018-04-17T00:24:28.892Z,23.70
2018-04-17T00:26:56.468Z,22.93
2018-04-17T00:29:24.156Z,24.07
2018-04-17T00:31:52.496Z,21.20
2018-04-17T00:34:20.052Z,22.03
2018-04-17T00:36:47.644Z,22.10
2018-04-17T00:39:15.962Z,20.93
2018-04-17T00:41:43.517Z,22.57
2018-04-17T00:44:11.092Z,20.77
2018-04-17T00:46:38.649Z,21.40
2018-04-17T00:49:06.225Z,20.17
2018-04-17T00:51:33.776Z,19.77
2018-04-17T00:54:01.365Z,19.30
2018-04-17T00:56:28.920Z,18.90
2018-04-17T00:58:57.256Z,18.87
2018-04-17T01:01:25.124Z,18.77
2018-04-17T01:03:52.705Z,18.53
2018-04-17T01:06:20.256Z,18.23
2018-04-17T01:08:47.932Z,19.10
2018-04-17T01:11:15.484Z,17.43
2018-04-17T01:13:43.060Z,16.93
2018-04-17T01:16:12.121Z,17.17
2018-04-17T01:18:39.700Z,17.03
2018-04-17T01:21:07.252Z,18.00
2018-04-17T01:23:34.809Z,17.03
2018-04-17T01:26:02.389Z,17.73
2018-04-17T01:28:29.943Z,16.47
2018-04-17T01:30:57.522Z,16.43
2018-04-17T01:33:25.848Z,16.23
2018-04-17T01:35:53.420Z,17.23
2018-04-17T01:38:20.976Z,15.50
2018-04-17T01:40:48.552Z,15.53
2018-04-17T01:43:16.117Z,16.30
2018-04-17T01:45:43.693Z,15.63
2018-04-17T01:48:11.248Z,15.00
2018-04-17T01:50:38.897Z,16.13
2018-04-17T01:53:06.453Z,15.70
2018-04-17T01:55:34.066Z,15.20
2018-04-17T01:58:01.676Z,14.60
2018-04-17T02:00:29.244Z,14.10
2018-04-17T02:02:56.820Z,12.80
2018-04-17T02:05:24.400Z,14.60
2018-04-17T02:07:51.977Z,13.07
2018-04-17T02:10:19.533Z,13.00
2018-04-17T02:12:47.121Z,14.03
2018-04-17T02:15:14.673Z,13.07
2018-04-17T02:17:42.244Z,12.80
2018-04-17T02:20:09.796Z,12.50
2018-04-17T02:22:37.368Z,11.70
2018-04-17T02:25:04.933Z,11.83
2018-04-17T02:27:32.595Z,11.07
2018-04-17T02:30:01.660Z,11.70
2018-04-17T02:32:29.241Z,11.30
2018-04-17T02:34:56.792Z,11.00
2018-04-17T02:37:24.349Z,11.90
2018-04-17T02:39:51.924Z,10.90
2018-04-17T02:42:19.472Z,10.80
2018-04-17T02:44:47.046Z,11.10
2018-04-17T02:47:14.704Z,11.43
2018-04-17T02:49:42.369Z,10.90
2018-04-17T02:52:09.920Z,11.77
2018-04-17T02:54:37.489Z,10.83
2018-04-17T02:57:05.049Z,11.97
2018-04-17T02:59:33.384Z,13.07
2018-04-17T03:02:00.981Z,12.87
2018-04-17T03:04:28.558Z,13.37
2018-04-17T03:06:56.102Z,12.63
2018-04-17T03:09:23.672Z,13.50
2018-04-17T03:11:52.812Z,12.97
2018-04-17T03:14:20.385Z,13.03
2018-04-17T03:16:47.936Z,13.90
2018-04-17T03:19:15.503Z,13.90
2018-04-17T03:21:43.077Z,14.73
2018-04-17T03:24:10.625Z,13.17
2018-04-17T03:26:38.197Z,12.90
2018-04-17T03:29:05.761Z,13.07
2018-04-17T03:31:33.332Z,12.60
2018-04-17T03:34:00.879Z,13.60
2018-04-17T03:36:28.452Z,13.47
2018-04-17T03:38:56.141Z,13.40
2018-04-17T03:41:24.476Z,12.43
2018-04-17T03:43:52.045Z,13.73
2018-04-17T03:46:19.616Z,12.47
2018-04-17T03:48:47.993Z,13.80
2018-04-17T03:51:15.560Z,12.47
2018-04-17T03:53:43.107Z,12.80
2018-04-17T03:56:11.485Z,12.93
2018-04-17T03:58:39.056Z,11.90
2018-04-17T04:01:07.376Z,12.00
2018-04-17T04:03:35.252Z,12.00
2018-04-17T04:06:02.800Z,12.63
2018-04-17T04:08:30.373Z,11.00
2018-04-17T04:10:57.924Z,12.60
2018-04-17T04:13:25.516Z,10.50
2018-04-17T04:15:53.093Z,11.70
2018-04-17T04:18:33.983Z,12.07
2018-04-17T04:21:14.107Z,11.40
2018-04-17T04:23:53.540Z,12.73
2018-04-17T04:26:32.460Z,12.43
2018-04-17T04:29:00.028Z,12.87
2018-04-17T04:31:27.581Z,11.40
2018-04-17T04:33:55.152Z,11.40
2018-04-17T04:36:22.700Z,11.97
2018-04-17T04:38:50.268Z,12.70
2018-04-17T04:41:17.824Z,12.20
2018-04-17T04:43:45.393Z,11.93
2018-04-17T04:46:13.047Z,11.63
2018-04-17T04:48:40.700Z,11.77
2018-04-17T04:51:08.259Z,11.40
2018-04-17T04:53:35.920Z,11.80
2018-04-17T04:56:03.480Z,11.80
2018-04-17T04:58:31.144Z,10.50
2018-04-17T05:00:58.697Z,11.43
2018-04-17T05:03:26.265Z,11.27
2018-04-17T05:05:53.820Z,11.70
2018-04-17T05:08:21.396Z,11.53
2018-04-17T05:10:49.040Z,10.67
2018-04-17T05:13:16.708Z,10.57
2018-04-17T05:15:44.289Z,10.77
2018-04-17T05:18:12.609Z,10.50
2018-04-17T05:20:40.184Z,13.03
2018-04-17T05:23:08.501Z,12.60
2018-04-17T05:25:36.065Z,11.73
2018-04-17T05:28:04.384Z,10.00
2018-04-17T05:30:31.949Z,8.50
2018-04-17T05:32:59.496Z,9.10
2018-04-17T05:35:27.064Z,10.90
2018-04-17T05:37:54.612Z,9.93
2018-04-17T05:40:22.173Z,8.47
2018-04-17T05:42:49.720Z,7.97
2018-04-17T05:45:17.298Z,8.00
2018-04-17T05:47:44.801Z,8.13
2018-04-17T05:50:12.332Z,7.20
2018-04-17T05:52:39.863Z,8.27
2018-04-17T05:55:07.389Z,7.13
2018-04-17T05:57:35.649Z,6.90
2018-04-17T06:00:03.190Z,7.50
2018-04-17T06:02:30.692Z,7.13
2018-04-17T06:04:58.948Z,8.27
2018-04-17T06:07:26.460Z,7.87
2018-04-17T06:09:53.952Z,7.53
2018-04-17T06:12:21.467Z,7.23
2018-04-17T06:14:48.960Z,7.00
2018-04-17T06:17:16.476Z,6.60
2018-04-17T06:19:43.968Z,7.37
2018-04-17T06:22:11.485Z,6.23
2018-04-17T06:24:38.983Z,6.27
2018-04-17T06:27:06.497Z,5.57
2018-04-17T06:29:33.997Z,6.70
2018-04-17T06:32:01.515Z,6.90
2018-04-17T06:34:29.014Z,7.47
2018-04-17T06:36:56.529Z,6.33
2018-04-17T06:39:24.025Z,6.30
2018-04-17T06:41:51.575Z,6.90
2018-04-17T06:44:19.048Z,7.03
2018-04-17T06:46:46.564Z,7.50
2018-04-17T06:49:14.060Z,6.23
2018-04-17T06:51:41.552Z,6.97
2018-04-17T06:54:09.832Z,5.30
2018-04-17T06:56:38.092Z,5.80
2018-04-17T06:59:05.605Z,5.70
2018-04-17T07:01:33.096Z,5.60
2018-04-17T07:04:00.611Z,4.63
2018-04-17T07:06:28.104Z,5.50
2018-04-17T07:08:55.621Z,4.90
2018-04-17T07:11:23.117Z,5.90
2018-04-17T07:13:50.636Z,5.70
2018-04-17T07:16:18.132Z,5.00
2018-04-17T07:18:45.651Z,6.57
2018-04-17T07:21:13.149Z,4.97
2018-04-17T07:23:40.699Z,4.70
2018-04-17T07:26:08.196Z,5.53
2018-04-17T07:28:35.695Z,4.83
2018-04-17T07:31:03.209Z,4.80
2018-04-17T07:33:30.705Z,4.90
2018-04-17T07:35:58.216Z,4.57
2018-04-17T07:38:25.722Z,4.33
2018-04-17T07:40:53.240Z,4.40
2018-04-17T07:43:20.732Z,4.30
2018-04-17T07:45:48.244Z,4.40
2018-04-17T07:48:27.656Z,4.87
2018-04-17T07:50:55.164Z,4.20
2018-04-17T07:53:23.429Z,4.57
2018-04-17T07:55:50.941Z,4.20
2018-04-17T07:58:18.445Z,5.00
2018-04-17T08:00:45.964Z,5.47
2018-04-17T08:03:13.456Z,5.70
2018-04-17T08:05:40.978Z,5.97
2018-04-17T08:08:08.477Z,5.40
2018-04-17T08:10:35.972Z,7.57
2018-04-17T08:13:03.488Z,8.13
2018-04-17T08:15:30.992Z,7.43
2018-04-17T08:17:58.505Z,6.10
2018-04-17T08:20:25.997Z,6.93
2018-04-17T08:22:53.508Z,6.37
2018-04-17T08:25:21.004Z,6.63
2018-04-17T08:27:49.288Z,6.60
2018-04-17T08:30:16.788Z,8.13
2018-04-17T08:32:44.300Z,7.50
2018-04-17T08:35:11.793Z,6.33
2018-04-17T08:37:39.317Z,9.20
2018-04-17T08:40:06.820Z,8.17
2018-04-17T08:42:34.320Z,6.97
2018-04-17T08:45:02.597Z,7.13
2018-04-17T08:47:31.139Z,7.13
2018-04-17T08:49:58.656Z,6.67
2018-04-17T08:52:26.152Z,7.00
2018-04-17T08:54:53.673Z,7.40
2018-04-17T08:57:21.169Z,8.17
2018-04-17T08:59:48.685Z,7.80
2018-04-17T09:02:16.188Z,7.23
2018-04-17T09:04:43.708Z,9.00
2018-04-17T09:07:11.210Z,7.30
2018-04-17T09:09:38.720Z,8.00
2018-04-17T09:12:06.216Z,6.90
2018-04-17T09:14:33.736Z,7.50
2018-04-17T09:17:01.242Z,7.03
2018-04-17T09:19:28.769Z,7.93
2018-04-17T09:21:56.271Z,7.90
2018-04-17T09:24:23.792Z,7.53
2018-04-17T09:26:51.290Z,8.30
2018-04-17T09:29:18.848Z,7.87
2018-04-17T09:31:46.340Z,8.70
2018-04-17T09:34:13.849Z,7.13
2018-04-17T09:36:41.368Z,6.30
2018-04-17T09:39:08.868Z,6.80
2018-04-17T09:41:36.381Z,5.77
2018-04-17T09:44:03.872Z,5.43
2018-04-17T09:46:31.382Z,5.20
2018-04-17T09:48:58.879Z,5.10
2018-04-17T09:51:26.392Z,5.20
2018-04-17T09:53:54.656Z,4.60
2018-04-17T09:56:23.220Z,4.97
2018-04-17T09:58:51.504Z,4.80
2018-04-17T10:01:21.604Z,4.53
2018-04-17T10:03:49.100Z,4.20
2018-04-17T10:06:17.379Z,4.80
2018-04-17T10:08:45.669Z,5.20
2018-04-17T10:11:13.933Z,4.90
2018-04-17T10:13:41.457Z,4.83
2018-04-17T10:16:08.952Z,4.17
2018-04-17T10:18:37.228Z,5.10
2018-04-17T10:21:04.720Z,3.53
2018-04-17T10:23:32.469Z,3.70
2018-04-17T10:25:59.969Z,3.53
2018-04-17T10:28:27.488Z,3.80
2018-04-17T10:30:54.988Z,3.80
2018-04-17T10:33:22.500Z,3.40
2018-04-17T10:35:49.992Z,3.43
2018-04-17T10:38:17.521Z,3.90
2018-04-17T10:40:45.013Z,3.70
2018-04-17T10:43:12.524Z,3.23
2018-04-17T10:45:40.021Z,3.20
2018-04-17T10:48:07.524Z,2.60
2018-04-17T10:50:35.805Z,3.80
2018-04-17T10:53:03.305Z,4.10
2018-04-17T10:55:30.818Z,3.97
2018-04-17T10:57:59.076Z,3.30
2018-04-17T11:00:27.360Z,4.33
2018-04-17T11:02:55.621Z,3.37
2018-04-17T11:05:23.144Z,3.00
2018-04-17T11:07:50.646Z,3.20
2018-04-17T11:10:18.952Z,2.90
2018-04-17T11:12:46.450Z,2.87
2018-04-17T11:15:13.960Z,3.43
2018-04-17T11:17:41.460Z,3.10
2018-04-17T11:20:08.972Z,3.43
2018-04-17T11:22:36.469Z,3.13
2018-04-17T11:25:03.985Z,2.67
2018-04-17T11:27:32.244Z,2.60
2018-04-17T11:30:00.537Z,3.10
2018-04-17T11:32:28.802Z,3.30
2018-04-17T11:34:57.065Z,3.47
2018-04-17T11:37:24.577Z,2.93
2018-04-17T11:39:52.080Z,3.17
2018-04-17T11:42:19.597Z,3.50
2018-04-17T11:44:47.093Z,3.70
2018-04-17T11:47:14.604Z,3.77
2018-04-17T11:49:42.093Z,4.60
2018-04-17T11:52:09.618Z,4.17
2018-04-17T11:54:37.116Z,4.03
2018-04-17T11:57:04.638Z,4.50
2018-04-17T11:59:32.136Z,4.60
2018-04-17T12:01:59.652Z,4.60
2018-04-17T12:04:27.208Z,3.80
2018-04-17T12:06:54.707Z,3.37
2018-04-17T12:09:22.217Z,3.10
2018-04-17T12:11:49.712Z,2.40
2018-04-17T12:14:17.224Z,2.40
2018-04-17T12:16:44.721Z,3.03
2018-04-17T12:19:12.224Z,2.40
2018-04-17T12:21:40.485Z,3.10
2018-04-17T12:24:07.997Z,2.97
2018-04-17T12:26:35.495Z,3.00
2018-04-17T12:29:03.016Z,3.53
2018-04-17T12:31:30.512Z,3.33
2018-04-17T12:33:58.015Z,3.37
2018-04-17T12:36:25.537Z,2.83
2018-04-17T12:38:53.800Z,2.50
2018-04-17T12:41:21.312Z,3.30
2018-04-17T12:43:49.121Z,3.27
2018-04-17T12:46:16.637Z,4.10
2018-04-17T12:48:44.370Z,5.40
2018-04-17T12:51:12.657Z,4.23
2018-04-17T12:53:40.155Z,4.40
2018-04-17T12:56:07.677Z,3.23
2018-04-17T12:58:35.176Z,3.23
2018-04-17T13:01:02.718Z,3.77
2018-04-17T13:03:30.205Z,4.30
2018-04-17T13:05:57.700Z,5.03
2018-04-17T13:08:25.212Z,4.90
2018-04-17T13:10:52.704Z,4.80
2018-04-17T13:13:20.985Z,5.63
2018-04-17T13:15:49.252Z,4.80
2018-04-17T13:18:17.539Z,5.17
2018-04-17T13:20:45.802Z,4.70
2018-04-17T13:23:14.085Z,4.93
2018-04-17T13:25:42.345Z,5.20
2018-04-17T13:28:09.861Z,4.10
2018-04-17T13:30:37.376Z,3.87
2018-04-17T13:33:05.654Z,2.87
2018-04-17T13:35:33.916Z,3.87
2018-04-17T13:38:01.436Z,4.30
2018-04-17T13:40:28.933Z,4.77
2018-04-17T13:42:56.447Z,4.57
2018-04-17T13:45:23.940Z,4.93
2018-04-17T13:47:51.434Z,5.37
2018-04-17T13:50:18.965Z,4.70
2018-04-17T13:52:46.465Z,4.50
2018-04-17T13:55:13.986Z,4.17
2018-04-17T13:57:42.252Z,5.40
2018-04-17T14:00:09.770Z,5.37
2018-04-17T14:02:37.264Z,3.63
2018-04-17T14:05:04.789Z,3.90
2018-04-17T14:07:32.284Z,3.93
2018-04-17T14:09:59.877Z,4.77
2018-04-17T14:12:27.373Z,4.70
2018-04-17T14:14:54.885Z,4.63
2018-04-17T14:17:23.164Z,4.10
2018-04-17T14:19:50.684Z,5.00
2018-04-17T14:22:18.192Z,4.60
2018-04-17T14:24:45.688Z,4.47
2018-04-17T14:27:13.201Z,4.37
2018-04-17T14:29:40.696Z,4.30
2018-04-17T14:32:08.204Z,3.03
2018-04-17T14:34:36.464Z,3.10
2018-04-17T14:37:04.376Z,3.10
2018-04-17T14:39:31.869Z,3.07
2018-04-17T14:41:59.381Z,3.30
2018-04-17T14:44:26.878Z,2.83
2018-04-17T14:46:54.388Z,3.57
2018-04-17T14:49:22.644Z,3.50
2018-04-17T14:51:50.925Z,2.93
2018-04-17T14:54:19.191Z,3.00
2018-04-17T14:56:47.484Z,2.63
2018-04-17T14:59:15.744Z,2.80
2018-04-17T15:01:43.257Z,3.27
2018-04-17T15:04:10.756Z,2.97
2018-04-17T15:06:39.046Z,2.80
2018-04-17T15:09:07.304Z,2.93
2018-04-17T15:11:34.820Z,2.77
2018-04-17T15:14:02.321Z,2.70
2018-04-17T15:16:29.812Z,3.70
2018-04-17T15:18:57.324Z,2.90
2018-04-17T15:21:24.825Z,2.50
2018-04-17T15:23:52.342Z,3.30
2018-04-17T15:26:19.832Z,3.43
2018-04-17T15:28:48.120Z,2.53
2018-04-17T15:31:15.617Z,2.87
2018-04-17T15:33:43.128Z,3.90
2018-04-17T15:36:11.392Z,3.10
2018-04-17T15:38:39.673Z,3.07
2018-04-17T15:41:07.933Z,3.50
2018-04-17T15:43:35.450Z,4.23
2018-04-17T15:46:02.945Z,3.73
2018-04-17T15:48:30.464Z,4.60
2018-04-17T15:50:57.960Z,4.43
2018-04-17T15:53:25.469Z,5.10
2018-04-17T15:55:52.981Z,5.50
2018-04-17T15:58:20.478Z,6.17
2018-04-17T16:00:47.993Z,5.63
2018-04-17T16:03:15.524Z,5.03
2018-04-17T16:05:43.024Z,5.40
2018-04-17T16:08:11.289Z,5.43
2018-04-17T16:10:38.804Z,5.60
2018-04-17T16:13:06.326Z,4.20
2018-04-17T16:15:34.613Z,4.10
2018-04-17T16:18:02.111Z,4.80
2018-04-17T16:20:29.634Z,5.17
2018-04-17T16:22:57.129Z,4.67
2018-04-17T16:25:24.640Z,5.60
2018-04-17T16:27:52.468Z,4.90
2018-04-17T16:30:19.966Z,5.17
2018-04-17T16:32:47.480Z,4.47
2018-04-17T16:35:14.979Z,7.50
2018-04-17T16:37:43.264Z,6.67
2018-04-17T16:40:10.761Z,8.53
2018-04-17T16:42:38.276Z,9.60
2018-04-17T16:45:05.786Z,10.20
2018-04-17T16:47:33.309Z,10.10
2018-04-17T16:50:00.808Z,9.70
2018-04-17T16:52:28.340Z,10.27
2018-04-17T16:54:55.835Z,8.77
2018-04-17T16:57:23.368Z,7.97
2018-04-17T16:59:50.869Z,8.50
2018-04-17T17:02:19.152Z,8.33
2018-04-17T17:04:47.416Z,10.37
2018-04-17T17:07:15.713Z,10.10
2018-04-17T17:09:43.209Z,10.67
2018-04-17T17:12:10.709Z,9.70
2018-04-17T17:14:38.987Z,9.67
2018-04-17T17:17:07.276Z,9.77
2018-04-17T17:19:34.791Z,9.27
2018-04-17T17:22:02.292Z,9.77
2018-04-17T17:24:29.809Z,9.77
2018-04-17T17:26:57.304Z,9.53
2018-04-17T17:29:24.828Z,9.33
2018-04-17T17:31:52.329Z,9.23
2018-04-17T17:34:19.850Z,8.77
2018-04-17T17:36:47.349Z,9.10
2018-04-17T17:39:14.865Z,9.47
2018-04-17T17:41:42.364Z,9.30
2018-04-17T17:44:09.889Z,8.90
2018-04-17T17:46:38.160Z,9.13
2018-04-17T17:49:05.684Z,9.00
2018-04-17T17:51:33.185Z,8.47
2018-04-17T17:54:00.684Z,8.70
2018-04-17T17:56:28.201Z,8.87
2018-04-17T17:58:55.801Z,8.83
2018-04-17T18:01:23.316Z,7.80
2018-04-17T18:03:50.862Z,7.90
2018-04-17T18:06:18.340Z,7.67
2018-04-17T18:08:46.604Z,7.87
2018-04-17T18:11:14.172Z,7.93
2018-04-17T18:13:41.637Z,7.37
2018-04-17T18:16:09.916Z,7.60
2018-04-17T18:18:38.180Z,6.60
2018-04-17T18:21:06.465Z,7.50
2018-04-17T18:23:34.728Z,7.20
2018-04-17T18:26:02.244Z,6.70
2018-04-17T18:28:29.742Z,5.97
2018-04-17T18:30:57.285Z,5.00
2018-04-17T18:33:24.780Z,4.43
2018-04-17T18:35:53.064Z,4.70
2018-04-17T18:38:20.743Z,4.83
2018-04-17T18:40:48.289Z,4.60
2018-04-17T18:43:15.785Z,5.00
2018-04-17T18:45:43.400Z,5.17
2018-04-17T18:48:10.902Z,4.90
2018-04-17T18:50:38.401Z,5.73
2018-04-17T18:53:06.680Z,5.33
2018-04-17T18:55:34.944Z,5.40
2018-04-17T18:58:02.457Z,5.37
2018-04-17T19:00:29.948Z,5.40
2018-04-17T19:02:57.464Z,5.80
2018-04-17T19:05:25.001Z,5.20
2018-04-17T19:07:52.516Z,5.43
2018-04-17T19:10:20.837Z,5.27
2018-04-17T19:12:48.397Z,5.60
2018-04-17T19:15:15.892Z,5.33
2018-04-17T19:17:43.416Z,5.50
2018-04-17T19:20:10.922Z,5.87
2018-04-17T19:22:38.435Z,5.67
2018-04-17T19:25:05.933Z,5.97
2018-04-17T19:27:33.444Z,5.73
2018-04-17T19:30:00.949Z,5.33
2018-04-17T19:32:28.473Z,5.53
2018-04-17T19:34:55.972Z,5.73
2018-04-17T19:37:23.485Z,6.20
2018-04-17T19:39:51.037Z,6.40
2018-04-17T19:42:18.552Z,6.50
2018-04-17T19:44:47.554Z,6.30
2018-04-17T19:47:16.604Z,6.43
2018-04-17T19:49:44.105Z,6.03
2018-04-17T19:52:11.599Z,6.23
2018-04-17T19:54:39.120Z,6.60
2018-04-17T19:57:06.673Z,7.03
2018-04-17T19:59:35.016Z,7.80
2018-04-17T20:02:02.549Z,8.00
2018-04-17T20:04:30.060Z,7.27
2018-04-17T20:06:57.663Z,7.20
2018-04-17T20:09:25.211Z,7.60
2018-04-17T20:11:52.693Z,7.43
2018-04-17T20:14:20.209Z,7.07
2018-04-17T20:16:47.705Z,7.30
2018-04-17T20:19:15.261Z,7.90
2018-04-17T20:21:42.768Z,6.93
2018-04-17T20:24:10.286Z,7.93
2018-04-17T20:26:37.784Z,7.17
2018-04-17T20:29:05.300Z,6.60
2018-04-17T20:31:32.852Z,7.20
2018-04-17T20:34:00.368Z,6.87
2018-04-17T20:36:27.862Z,7.20
2018-04-17T20:38:55.357Z,6.80
2018-04-17T20:41:22.869Z,7.07
2018-04-17T20:43:51.141Z,7.60
2018-04-17T20:46:19.421Z,7.30
2018-04-17T20:48:47.688Z,7.63
2018-04-17T20:51:15.973Z,6.50
2018-04-17T20:53:44.233Z,6.80
2018-04-17T20:56:11.745Z,7.50
2018-04-17T20:58:39.248Z,7.37
2018-04-17T21:01:06.803Z,7.23
2018-04-17T21:03:34.280Z,7.00
2018-04-17T21:06:02.561Z,6.53
2018-04-17T21:08:30.821Z,6.67
2018-04-17T21:10:59.100Z,6.30
2018-04-17T21:13:27.361Z,7.03
2018-04-17T21:15:54.876Z,6.77
2018-04-17T21:18:22.373Z,6.30
2018-04-17T21:20:49.890Z,6.77
2018-04-17T21:23:17.385Z,6.17
2018-04-17T21:25:44.901Z,6.60
2018-04-17T21:28:12.396Z,6.33
2018-04-17T21:30:39.900Z,6.00
2018-04-17T21:33:07.468Z,6.90
2018-04-17T21:35:35.029Z,6.77
2018-04-17T21:38:02.548Z,7.50
2018-04-17T21:40:30.137Z,7.20
2018-04-17T21:42:57.652Z,8.20
2018-04-17T21:45:25.149Z,8.67
2018-04-17T21:47:53.428Z,9.57
2018-04-17T21:50:20.921Z,9.43
2018-04-17T21:52:48.452Z,9.83
2018-04-17T21:55:16.008Z,9.50
2018-04-17T21:57:43.528Z,9.80
2018-04-17T22:00:11.020Z,7.80
2018-04-17T22:02:38.533Z,6.80
2018-04-17T22:05:06.027Z,6.43
2018-04-17T22:07:34.312Z,7.13
2018-04-17T22:10:01.801Z,6.97
2018-04-17T22:12:29.291Z,7.20
2018-04-17T22:14:57.604Z,6.17
2018-04-17T22:17:25.160Z,7.40
2018-04-17T22:19:52.665Z,7.20
2018-04-17T22:22:20.153Z,6.30
2018-04-17T22:24:48.435Z,7.80
2018-04-17T22:27:16.693Z,8.47
2018-04-17T22:29:44.969Z,8.93
2018-04-17T22:32:12.460Z,8.30
2018-04-17T22:34:39.973Z,9.00
2018-04-17T22:37:07.464Z,9.10
2018-04-17T22:39:35.745Z,8.30
2018-04-17T22:42:04.014Z,10.03
2018-04-17T22:44:32.296Z,8.90
2018-04-17T22:47:00.557Z,8.83
2018-04-17T22:49:28.857Z,9.00
2018-04-17T22:51:56.352Z,9.60
2018-04-17T22:54:23.844Z,9.30
2018-04-17T22:56:52.126Z,9.17
2018-04-17T22:59:19.629Z,10.67
2018-04-17T23:01:47.156Z,9.40
2018-04-17T23:04:15.412Z,9.13
2018-04-17T23:06:43.694Z,9.20
2018-04-17T23:09:11.997Z,10.40
2018-04-17T23:11:39.526Z,10.10
2018-04-17T23:14:07.113Z,11.20
2018-04-17T23:16:34.676Z,11.20
2018-04-17T23:19:02.250Z,11.00
2018-04-17T23:21:29.768Z,10.10
2018-04-17T23:23:58.033Z,10.10
2018-04-17T23:26:27.057Z,10.73
2018-04-17T23:28:55.316Z,10.30
2018-04-17T23:31:23.595Z,11.40
2018-04-17T23:33:51.857Z,10.20
2018-04-17T23:36:19.445Z,12.57
2018-04-17T23:38:47.720Z,11.10
2018-04-17T23:41:15.288Z,11.00
2018-04-17T23:43:42.804Z,10.10
2018-04-17T23:46:10.300Z,11.00
2018-04-17T23:48:37.817Z,11.40
2018-04-17T23:51:05.313Z,11.37
2018-04-17T23:53:32.872Z,11.70
2018-04-17T23:56:00.432Z,11.50
2018-04-17T23:58:27.950Z,10.77
